Appleton, Washington
Current Conditions -  °F | °C
As of 10:53 AM on Monday 20 Oct 2014 (Local Time) from KDLS Reporting Station
Overcast Overcast  
Wind Chill: 15°   Ceiling: 7000
Heat Index: 15°   Visibility: 10mi
Dew Point: 13°   Wind: 0mph
Humidity: 90%   Direction: NA
Pressure: 29.77"   Gusts: NA
Location:  45.81°N, 121.27°W
Report Text: KDLS 201753Z AUTO 00000KT 10SM OVC070 15/13 A2977 RMK AO2 RAE01 SLP081 P0000 60009 T01500133 10150 20117 50010
Loading
Personal Weather Stations






























Interactive Weather Map New forecast layout! Learn more

10-Day Weather Forecast

Advertisements
Track Severe Weather on mobile